createdAt,value
2022-11-22T00:01:59.127Z,26.4
2022-11-22T00:07:36.144Z,26.4
2022-11-22T00:12:58.375Z,26.4
2022-11-22T00:18:22.537Z,26.4
2022-11-22T00:23:51.282Z,26.4
2022-11-22T00:29:12.556Z,26.4
2022-11-22T00:34:35.794Z,26.3
2022-11-22T00:39:57.751Z,26.3
2022-11-22T00:45:34.591Z,26.3
2022-11-22T00:51:12.858Z,26.3
2022-11-22T00:56:50.133Z,26.3
2022-11-22T01:02:32.794Z,26.2
2022-11-22T01:08:11.260Z,26.2
2022-11-22T01:13:48.336Z,26.2
2022-11-22T01:19:25.549Z,26.2
2022-11-22T01:25:03.949Z,26.1
2022-11-22T01:30:25.282Z,26.1
2022-11-22T01:35:47.149Z,26.1
2022-11-22T01:41:25.317Z,26.1
2022-11-22T01:47:02.935Z,26
2022-11-22T01:52:40.184Z,26
2022-11-22T01:58:18.030Z,26
2022-11-22T02:03:55.809Z,25.9
2022-11-22T02:09:19.699Z,26.1
2022-11-22T02:14:58.818Z,26.4
2022-11-22T02:20:20.042Z,26.8
2022-11-22T02:25:57.416Z,27.1
2022-11-22T02:31:35.884Z,27.5
2022-11-22T02:37:12.989Z,27.9
2022-11-22T02:42:50.819Z,28.3
2022-11-22T02:48:29.120Z,28.8
2022-11-22T02:53:50.413Z,29.2
2022-11-22T02:59:28.414Z,29.6
2022-11-22T03:05:10.886Z,30
2022-11-22T03:10:52.236Z,30.4
2022-11-22T03:16:13.014Z,30.9
2022-11-22T03:21:35.446Z,31.3
2022-11-22T03:26:59.131Z,31.6
2022-11-22T03:32:36.651Z,32
2022-11-22T03:37:59.590Z,32.4
2022-11-22T03:43:43.727Z,32.8
2022-11-22T03:49:05.351Z,32.9
2022-11-22T03:54:43.777Z,33
2022-11-22T04:00:21.783Z,33.1
2022-11-22T04:05:48.443Z,33.1
2022-11-22T04:10:56.706Z,33.1
2022-11-22T04:16:34.104Z,33.2
2022-11-22T04:21:55.255Z,33.2
2022-11-22T04:27:33.082Z,33.3
2022-11-22T04:33:44.732Z,33.3
2022-11-22T04:39:06.345Z,33.3
2022-11-22T04:44:28.959Z,33.3
2022-11-22T04:49:51.407Z,33.4
2022-11-22T04:54:58.509Z,33.4
2022-11-22T05:00:26.723Z,33.3
2022-11-22T05:06:08.852Z,33.3
2022-11-22T05:11:49.546Z,33.3
2022-11-22T05:16:41.559Z,33.3
2022-11-22T05:22:03.822Z,33.3
2022-11-22T05:27:10.072Z,33.3
2022-11-22T05:32:37.831Z,33.3
2022-11-22T05:38:15.576Z,33.3
2022-11-22T05:43:53.749Z,33.2
2022-11-22T05:49:33.231Z,33.2
2022-11-22T05:55:15.140Z,33.2
2022-11-22T06:00:38.341Z,33.1
2022-11-22T06:05:46.019Z,33.1
2022-11-22T06:11:09.813Z,33.1
2022-11-22T06:16:54.627Z,33.1
2022-11-22T06:22:36.039Z,33.1
2022-11-22T06:28:02.959Z,33
2022-11-22T06:33:43.268Z,32.9
2022-11-22T06:39:23.352Z,32.9
2022-11-22T06:44:59.921Z,32.9
2022-11-22T06:50:38.614Z,32.8
2022-11-22T06:57:11.189Z,32.8
2022-11-22T07:02:55.608Z,39.1
2022-11-22T07:09:11.496Z,47.6
2022-11-22T07:14:57.135Z,45
2022-11-22T07:20:20.238Z,42.9
2022-11-22T07:26:00.918Z,47.1
2022-11-22T07:31:39.371Z,46.2
2022-11-22T07:37:06.190Z,45.9
2022-11-22T07:42:31.078Z,48.9
2022-11-22T07:47:56.233Z,50.1
2022-11-22T07:53:19.007Z,50.9
2022-11-22T07:58:57.173Z,50.4
2022-11-22T08:04:40.561Z,49.8
2022-11-22T08:10:24.541Z,49.8
2022-11-22T08:16:05.411Z,51.4
2022-11-22T08:21:45.422Z,52.1
2022-11-22T08:27:23.950Z,52.9
2022-11-22T08:33:01.946Z,52.9
2022-11-22T08:38:45.206Z,51.4
2022-11-22T08:44:23.766Z,50.6
2022-11-22T08:50:02.695Z,48.8
2022-11-22T08:55:43.791Z,46.1
2022-11-22T09:01:23.736Z,43.9
2022-11-22T09:08:53.928Z,42.3
2022-11-22T09:15:06.466Z,40.5
2022-11-22T09:20:44.399Z,39.7
2022-11-22T09:26:26.045Z,38.9
2022-11-22T09:32:05.557Z,38.4
2022-11-22T09:37:43.746Z,37.8
2022-11-22T09:43:28.212Z,37.3
2022-11-22T09:49:12.825Z,36.8
2022-11-22T09:54:52.104Z,36.3
2022-11-22T10:00:30.501Z,36
2022-11-22T10:06:42.063Z,35.6
2022-11-22T10:12:25.384Z,35.4
2022-11-22T10:18:02.752Z,35.1
2022-11-22T10:23:42.026Z,34.7
2022-11-22T10:29:23.499Z,34.4
2022-11-22T10:35:06.667Z,34.1
2022-11-22T10:40:46.189Z,33.9
2022-11-22T10:46:24.595Z,33.6
2022-11-22T10:52:05.897Z,33.4
2022-11-22T10:57:44.974Z,33.2
2022-11-22T11:03:11.577Z,32.9
2022-11-22T11:11:16.168Z,32.7
2022-11-22T11:17:01.899Z,32.4
2022-11-22T11:23:16.171Z,32.1
2022-11-22T11:28:54.517Z,31.9
2022-11-22T11:34:37.806Z,31.8
2022-11-22T11:40:17.918Z,31.6
2022-11-22T11:45:56.993Z,31.5
2022-11-22T11:51:36.056Z,31.4
2022-11-22T11:56:58.384Z,31.3
2022-11-22T12:02:45.322Z,31.1
2022-11-22T12:08:09.632Z,31.1
2022-11-22T12:14:21.955Z,30.9
2022-11-22T12:20:31.713Z,30.8
2022-11-22T12:51:01.256Z,30.7
2022-11-22T12:56:49.293Z,30.3
2022-11-22T13:02:27.485Z,30.3
2022-11-22T13:08:06.855Z,30.2
2022-11-22T13:13:52.011Z,30.1
2022-11-22T13:19:29.385Z,30.1
2022-11-22T13:25:15.124Z,30
2022-11-22T13:31:00.321Z,29.9
2022-11-22T13:36:44.183Z,29.9
2022-11-22T13:42:24.196Z,29.9
2022-11-22T13:48:10.110Z,29.8
2022-11-22T13:53:36.712Z,29.8
2022-11-22T13:59:08.136Z,29.8
2022-11-22T14:04:47.530Z,29.7
2022-11-22T14:10:29.688Z,29.6
2022-11-22T14:16:13.022Z,29.6
2022-11-22T14:21:55.866Z,29.6
2022-11-22T14:27:33.461Z,29.6
2022-11-22T14:33:02.587Z,29.5
2022-11-22T14:38:45.861Z,29.4
2022-11-22T14:44:24.228Z,29.4
2022-11-22T14:50:36.693Z,29.4
2022-11-22T14:56:21.054Z,29.4
2022-11-22T15:01:47.669Z,29.3
2022-11-22T16:00:35.859Z,29
2022-11-22T16:07:34.685Z,29
2022-11-22T16:13:19.913Z,28.9
2022-11-22T16:18:49.190Z,28.9
2022-11-22T16:24:12.403Z,28.8
2022-11-22T16:29:56.691Z,28.8
2022-11-22T16:36:01.695Z,28.7
2022-11-22T16:41:30.184Z,28.7
2022-11-22T16:47:14.079Z,28.7
2022-11-22T16:52:35.169Z,28.5
2022-11-22T16:58:13.959Z,27.7
2022-11-22T17:03:58.605Z,26.8
2022-11-22T17:09:41.031Z,25.9
2022-11-22T17:15:20.594Z,25.1
2022-11-22T17:27:00.363Z,24.1
2022-11-22T17:33:13.637Z,23.6
2022-11-22T17:38:50.626Z,23.3
2022-11-22T17:44:37.126Z,23.1
2022-11-22T17:50:21.890Z,22.9
2022-11-22T17:56:31.247Z,22.7
2022-11-22T18:01:55.495Z,22.5
2022-11-22T18:07:24.921Z,22.4
2022-11-22T18:13:22.570Z,22.3
2022-11-22T18:19:31.719Z,22.1
2022-11-22T18:25:14.625Z,22
2022-11-22T18:32:14.349Z,21.9
2022-11-22T18:38:16.562Z,21.9
2022-11-22T18:43:29.478Z,21.8
2022-11-22T18:49:12.808Z,21.8
2022-11-22T18:54:56.649Z,21.7
2022-11-22T19:00:21.478Z,21.7
2022-11-22T19:06:00.467Z,21.6
2022-11-22T19:11:40.283Z,21.6
2022-11-22T19:16:51.455Z,21.5
2022-11-22T19:22:35.361Z,21.4
2022-11-22T19:28:16.275Z,21.4
2022-11-22T19:33:41.443Z,21.4
2022-11-22T19:38:50.392Z,21.3
2022-11-22T19:44:21.573Z,21.3
2022-11-22T19:50:09.415Z,21.3
2022-11-22T19:55:33.467Z,21.2
2022-11-22T20:01:20.442Z,21.2
2022-11-22T20:12:30.262Z,21.1
2022-11-22T20:18:16.486Z,21.1
2022-11-22T20:23:41.897Z,21.1
2022-11-22T20:29:22.200Z,21.2
2022-11-22T20:34:47.274Z,21.6
2022-11-22T20:40:15.884Z,22.3
2022-11-22T20:46:23.361Z,23.2
2022-11-22T20:52:02.707Z,23.9
2022-11-22T20:57:48.230Z,24.8
2022-11-22T21:03:31.479Z,25.8
2022-11-22T21:09:11.860Z,26.8
2022-11-22T21:14:35.501Z,27.6
2022-11-22T21:21:13.841Z,28.1
2022-11-22T21:26:40.698Z,28.4
2022-11-22T21:31:48.501Z,28.6
2022-11-22T21:37:11.014Z,28.7
2022-11-22T21:43:27.973Z,28.8
2022-11-22T21:49:12.559Z,28.8
2022-11-22T21:54:57.117Z,28.8
2022-11-22T22:00:26.466Z,28.8
2022-11-22T22:06:05.199Z,28.8
2022-11-22T22:12:16.053Z,28.9
2022-11-22T22:17:55.097Z,28.8
2022-11-22T22:23:38.301Z,28.8
2022-11-22T22:29:16.297Z,28.8
2022-11-22T22:34:57.626Z,28.8
2022-11-22T22:40:20.476Z,28.8
2022-11-22T22:45:42.393Z,28.8
2022-11-22T22:51:32.615Z,28.8
2022-11-22T22:57:10.913Z,28.7
2022-11-22T23:02:53.059Z,28.7
2022-11-22T23:13:24.371Z,28.6
2022-11-22T23:19:26.842Z,28.6
2022-11-22T23:24:55.688Z,28.6
2022-11-22T23:30:34.297Z,28.6
2022-11-22T23:35:56.499Z,28.5
2022-11-22T23:41:34.863Z,28.5
2022-11-22T23:47:13.491Z,28.4
2022-11-22T23:52:50.630Z,28.4
2022-11-22T23:58:34.120Z,28.4
